sensor_id;sensor_type;location;lat;lon;timestamp;P1;durP1;ratioP1;P2;durP2;ratioP2
19043;SDS011;9654;52.302;8.120;2023-11-21T00:01:56;32.27;;;15.67;;
19043;SDS011;9654;52.302;8.120;2023-11-21T00:04:23;33.43;;;14.70;;
19043;SDS011;9654;52.302;8.120;2023-11-21T00:06:54;30.33;;;13.90;;
19043;SDS011;9654;52.302;8.120;2023-11-21T00:09:22;30.17;;;14.80;;
19043;SDS011;9654;52.302;8.120;2023-11-21T00:11:49;43.37;;;17.27;;
19043;SDS011;9654;52.302;8.120;2023-11-21T00:14:16;50.50;;;18.67;;
19043;SDS011;9654;52.302;8.120;2023-11-21T00:16:43;54.20;;;19.93;;
19043;SDS011;9654;52.302;8.120;2023-11-21T00:19:10;61.17;;;21.43;;
19043;SDS011;9654;52.302;8.120;2023-11-21T00:21:37;63.53;;;22.13;;
19043;SDS011;9654;52.302;8.120;2023-11-21T00:24:04;70.83;;;24.40;;
19043;SDS011;9654;52.302;8.120;2023-11-21T00:26:33;91.57;;;24.33;;
19043;SDS011;9654;52.302;8.120;2023-11-21T00:29:01;95.43;;;26.43;;
19043;SDS011;9654;52.302;8.120;2023-11-21T00:31:28;92.67;;;27.13;;
19043;SDS011;9654;52.302;8.120;2023-11-21T00:33:55;94.83;;;26.60;;
19043;SDS011;9654;52.302;8.120;2023-11-21T00:36:22;83.77;;;24.33;;
19043;SDS011;9654;52.302;8.120;2023-11-21T00:38:51;82.47;;;26.00;;
19043;SDS011;9654;52.302;8.120;2023-11-21T00:41:17;86.47;;;25.13;;
19043;SDS011;9654;52.302;8.120;2023-11-21T00:43:45;71.87;;;24.60;;
19043;SDS011;9654;52.302;8.120;2023-11-21T00:46:12;89.60;;;26.33;;
19043;SDS011;9654;52.302;8.120;2023-11-21T00:48:39;79.93;;;26.53;;
19043;SDS011;9654;52.302;8.120;2023-11-21T00:51:06;73.53;;;25.20;;
19043;SDS011;9654;52.302;8.120;2023-11-21T00:53:33;87.50;;;28.87;;
19043;SDS011;9654;52.302;8.120;2023-11-21T00:55:59;85.03;;;26.50;;
19043;SDS011;9654;52.302;8.120;2023-11-21T00:58:27;87.33;;;26.70;;
19043;SDS011;9654;52.302;8.120;2023-11-21T01:00:56;95.53;;;27.40;;
19043;SDS011;9654;52.302;8.120;2023-11-21T01:03:23;112.40;;;29.13;;
19043;SDS011;9654;52.302;8.120;2023-11-21T01:05:50;89.10;;;27.50;;
19043;SDS011;9654;52.302;8.120;2023-11-21T01:08:17;82.20;;;25.80;;
19043;SDS011;9654;52.302;8.120;2023-11-21T01:10:43;95.63;;;27.67;;
19043;SDS011;9654;52.302;8.120;2023-11-21T01:13:10;75.53;;;25.10;;
19043;SDS011;9654;52.302;8.120;2023-11-21T01:15:37;88.30;;;25.30;;
19043;SDS011;9654;52.302;8.120;2023-11-21T01:18:05;70.50;;;23.67;;
19043;SDS011;9654;52.302;8.120;2023-11-21T01:20:33;95.00;;;26.23;;
19043;SDS011;9654;52.302;8.120;2023-11-21T01:23:00;212.87;;;29.57;;
19043;SDS011;9654;52.302;8.120;2023-11-21T01:25:27;124.43;;;25.27;;
19043;SDS011;9654;52.302;8.120;2023-11-21T01:27:54;168.53;;;27.40;;
19043;SDS011;9654;52.302;8.120;2023-11-21T01:30:21;145.03;;;27.87;;
19043;SDS011;9654;52.302;8.120;2023-11-21T01:32:49;83.07;;;23.87;;
19043;SDS011;9654;52.302;8.120;2023-11-21T01:35:17;79.67;;;24.70;;
19043;SDS011;9654;52.302;8.120;2023-11-21T01:37:44;122.67;;;27.27;;
19043;SDS011;9654;52.302;8.120;2023-11-21T01:40:11;126.40;;;26.53;;
19043;SDS011;9654;52.302;8.120;2023-11-21T01:42:39;110.33;;;25.63;;
19043;SDS011;9654;52.302;8.120;2023-11-21T01:45:06;85.27;;;24.47;;
19043;SDS011;9654;52.302;8.120;2023-11-21T01:47:34;100.17;;;23.67;;
19043;SDS011;9654;52.302;8.120;2023-11-21T01:50:02;224.30;;;30.67;;
19043;SDS011;9654;52.302;8.120;2023-11-21T01:52:32;185.70;;;29.77;;
19043;SDS011;9654;52.302;8.120;2023-11-21T01:54:59;257.93;;;32.67;;
19043;SDS011;9654;52.302;8.120;2023-11-21T01:57:26;118.67;;;25.33;;
19043;SDS011;9654;52.302;8.120;2023-11-21T01:59:54;206.17;;;30.80;;
19043;SDS011;9654;52.302;8.120;2023-11-21T02:02:24;95.80;;;24.77;;
19043;SDS011;9654;52.302;8.120;2023-11-21T02:04:51;149.83;;;26.07;;
19043;SDS011;9654;52.302;8.120;2023-11-21T02:07:18;127.57;;;25.07;;
19043;SDS011;9654;52.302;8.120;2023-11-21T02:09:46;107.83;;;23.47;;
19043;SDS011;9654;52.302;8.120;2023-11-21T02:12:13;117.87;;;25.77;;
19043;SDS011;9654;52.302;8.120;2023-11-21T02:14:40;182.23;;;28.30;;
19043;SDS011;9654;52.302;8.120;2023-11-21T02:17:07;104.37;;;22.37;;
19043;SDS011;9654;52.302;8.120;2023-11-21T02:19:34;145.73;;;25.43;;
19043;SDS011;9654;52.302;8.120;2023-11-21T02:22:00;111.97;;;25.37;;
19043;SDS011;9654;52.302;8.120;2023-11-21T02:24:32;185.17;;;28.47;;
19043;SDS011;9654;52.302;8.120;2023-11-21T02:26:59;146.27;;;27.83;;
19043;SDS011;9654;52.302;8.120;2023-11-21T02:29:26;141.80;;;27.83;;
19043;SDS011;9654;52.302;8.120;2023-11-21T02:31:53;96.33;;;25.60;;
19043;SDS011;9654;52.302;8.120;2023-11-21T02:34:21;89.30;;;24.77;;
19043;SDS011;9654;52.302;8.120;2023-11-21T02:36:49;106.23;;;25.97;;
19043;SDS011;9654;52.302;8.120;2023-11-21T02:39:16;125.73;;;28.07;;
19043;SDS011;9654;52.302;8.120;2023-11-21T02:41:48;106.97;;;27.40;;
19043;SDS011;9654;52.302;8.120;2023-11-21T02:44:15;102.77;;;25.57;;
19043;SDS011;9654;52.302;8.120;2023-11-21T02:46:42;109.70;;;27.40;;
19043;SDS011;9654;52.302;8.120;2023-11-21T02:49:08;107.47;;;26.27;;
19043;SDS011;9654;52.302;8.120;2023-11-21T02:51:35;115.33;;;25.23;;
19043;SDS011;9654;52.302;8.120;2023-11-21T02:54:03;104.33;;;26.33;;
19043;SDS011;9654;52.302;8.120;2023-11-21T02:56:31;105.20;;;27.23;;
19043;SDS011;9654;52.302;8.120;2023-11-21T02:59:00;125.93;;;29.37;;
19043;SDS011;9654;52.302;8.120;2023-11-21T03:01:27;99.30;;;27.50;;
19043;SDS011;9654;52.302;8.120;2023-11-21T03:03:54;102.23;;;27.53;;
19043;SDS011;9654;52.302;8.120;2023-11-21T03:06:21;107.50;;;27.60;;
19043;SDS011;9654;52.302;8.120;2023-11-21T03:08:48;124.60;;;30.23;;
19043;SDS011;9654;52.302;8.120;2023-11-21T03:11:15;115.23;;;27.60;;
19043;SDS011;9654;52.302;8.120;2023-11-21T03:13:42;94.53;;;27.63;;
19043;SDS011;9654;52.302;8.120;2023-11-21T03:16:11;111.80;;;27.93;;
19043;SDS011;9654;52.302;8.120;2023-11-21T03:18:38;163.73;;;31.43;;
19043;SDS011;9654;52.302;8.120;2023-11-21T03:21:06;127.13;;;29.93;;
19043;SDS011;9654;52.302;8.120;2023-11-21T03:23:33;144.80;;;31.83;;
19043;SDS011;9654;52.302;8.120;2023-11-21T03:26:00;135.50;;;30.47;;
19043;SDS011;9654;52.302;8.120;2023-11-21T03:28:27;118.03;;;30.53;;
19043;SDS011;9654;52.302;8.120;2023-11-21T03:30:55;119.90;;;29.03;;
19043;SDS011;9654;52.302;8.120;2023-11-21T03:33:23;106.20;;;30.30;;
19043;SDS011;9654;52.302;8.120;2023-11-21T03:35:50;124.20;;;30.03;;
19043;SDS011;9654;52.302;8.120;2023-11-21T03:38:18;108.87;;;27.37;;
19043;SDS011;9654;52.302;8.120;2023-11-21T03:40:45;116.63;;;29.07;;
19043;SDS011;9654;52.302;8.120;2023-11-21T03:43:12;98.47;;;26.73;;
19043;SDS011;9654;52.302;8.120;2023-11-21T03:45:39;111.37;;;29.43;;
19043;SDS011;9654;52.302;8.120;2023-11-21T03:48:06;127.17;;;29.20;;
19043;SDS011;9654;52.302;8.120;2023-11-21T03:50:35;174.70;;;31.27;;
19043;SDS011;9654;52.302;8.120;2023-11-21T03:53:01;184.93;;;34.17;;
19043;SDS011;9654;52.302;8.120;2023-11-21T03:55:28;165.87;;;32.23;;
19043;SDS011;9654;52.302;8.120;2023-11-21T03:57:56;123.53;;;29.60;;
19043;SDS011;9654;52.302;8.120;2023-11-21T04:00:23;165.87;;;31.33;;
19043;SDS011;9654;52.302;8.120;2023-11-21T04:02:51;120.93;;;31.77;;
19043;SDS011;9654;52.302;8.120;2023-11-21T04:05:19;139.13;;;33.27;;
19043;SDS011;9654;52.302;8.120;2023-11-21T04:07:47;118.70;;;31.23;;
19043;SDS011;9654;52.302;8.120;2023-11-21T04:10:15;106.83;;;28.67;;
19043;SDS011;9654;52.302;8.120;2023-11-21T04:12:41;235.13;;;56.20;;
19043;SDS011;9654;52.302;8.120;2023-11-21T04:15:09;235.27;;;40.63;;
19043;SDS011;9654;52.302;8.120;2023-11-21T04:17:37;121.53;;;34.20;;
19043;SDS011;9654;52.302;8.120;2023-11-21T04:20:05;193.90;;;41.27;;
19043;SDS011;9654;52.302;8.120;2023-11-21T04:22:35;153.20;;;35.93;;
19043;SDS011;9654;52.302;8.120;2023-11-21T04:25:05;131.27;;;35.33;;
19043;SDS011;9654;52.302;8.120;2023-11-21T04:27:32;142.57;;;33.57;;
19043;SDS011;9654;52.302;8.120;2023-11-21T04:29:59;125.27;;;34.27;;
19043;SDS011;9654;52.302;8.120;2023-11-21T04:32:26;119.97;;;29.73;;
19043;SDS011;9654;52.302;8.120;2023-11-21T04:34:53;116.73;;;30.53;;
19043;SDS011;9654;52.302;8.120;2023-11-21T04:37:19;103.00;;;26.97;;
19043;SDS011;9654;52.302;8.120;2023-11-21T04:39:46;112.80;;;28.40;;
19043;SDS011;9654;52.302;8.120;2023-11-21T04:42:14;112.37;;;27.57;;
19043;SDS011;9654;52.302;8.120;2023-11-21T04:44:41;103.83;;;26.00;;
19043;SDS011;9654;52.302;8.120;2023-11-21T04:47:09;114.20;;;28.50;;
19043;SDS011;9654;52.302;8.120;2023-11-21T04:49:35;115.13;;;28.23;;
19043;SDS011;9654;52.302;8.120;2023-11-21T04:52:02;115.83;;;28.30;;
19043;SDS011;9654;52.302;8.120;2023-11-21T04:54:30;100.10;;;27.97;;
19043;SDS011;9654;52.302;8.120;2023-11-21T04:56:57;114.90;;;30.57;;
19043;SDS011;9654;52.302;8.120;2023-11-21T04:59:25;108.87;;;28.90;;
19043;SDS011;9654;52.302;8.120;2023-11-21T05:01:52;113.87;;;28.50;;
19043;SDS011;9654;52.302;8.120;2023-11-21T05:04:19;128.43;;;29.70;;
19043;SDS011;9654;52.302;8.120;2023-11-21T05:06:47;98.60;;;27.50;;
19043;SDS011;9654;52.302;8.120;2023-11-21T05:09:14;121.60;;;32.37;;
19043;SDS011;9654;52.302;8.120;2023-11-21T05:11:40;106.07;;;28.83;;
19043;SDS011;9654;52.302;8.120;2023-11-21T05:14:07;109.03;;;29.40;;
19043;SDS011;9654;52.302;8.120;2023-11-21T05:16:36;111.87;;;28.93;;
19043;SDS011;9654;52.302;8.120;2023-11-21T05:19:03;124.07;;;30.60;;
19043;SDS011;9654;52.302;8.120;2023-11-21T05:21:30;111.37;;;28.67;;
19043;SDS011;9654;52.302;8.120;2023-11-21T05:23:57;122.23;;;31.07;;
19043;SDS011;9654;52.302;8.120;2023-11-21T05:26:24;126.43;;;29.23;;
19043;SDS011;9654;52.302;8.120;2023-11-21T05:28:51;124.63;;;30.83;;
19043;SDS011;9654;52.302;8.120;2023-11-21T05:31:18;100.80;;;27.23;;
19043;SDS011;9654;52.302;8.120;2023-11-21T05:33:46;122.77;;;29.77;;
19043;SDS011;9654;52.302;8.120;2023-11-21T05:36:13;93.80;;;26.93;;
19043;SDS011;9654;52.302;8.120;2023-11-21T05:38:40;95.90;;;26.73;;
19043;SDS011;9654;52.302;8.120;2023-11-21T05:41:07;102.23;;;26.93;;
19043;SDS011;9654;52.302;8.120;2023-11-21T05:43:36;94.53;;;26.50;;
19043;SDS011;9654;52.302;8.120;2023-11-21T05:46:03;114.70;;;27.93;;
19043;SDS011;9654;52.302;8.120;2023-11-21T05:48:30;90.20;;;28.10;;
19043;SDS011;9654;52.302;8.120;2023-11-21T05:50:58;102.07;;;27.77;;
19043;SDS011;9654;52.302;8.120;2023-11-21T05:53:26;109.10;;;29.83;;
19043;SDS011;9654;52.302;8.120;2023-11-21T05:55:53;113.93;;;29.83;;
19043;SDS011;9654;52.302;8.120;2023-11-21T05:58:20;95.60;;;26.40;;
19043;SDS011;9654;52.302;8.120;2023-11-21T06:00:47;96.63;;;28.40;;
19043;SDS011;9654;52.302;8.120;2023-11-21T06:03:13;111.73;;;29.93;;
19043;SDS011;9654;52.302;8.120;2023-11-21T06:05:42;89.13;;;26.93;;
19043;SDS011;9654;52.302;8.120;2023-11-21T06:08:10;71.17;;;22.57;;
19043;SDS011;9654;52.302;8.120;2023-11-21T06:10:37;80.03;;;24.77;;
19043;SDS011;9654;52.302;8.120;2023-11-21T06:13:04;78.87;;;22.63;;
19043;SDS011;9654;52.302;8.120;2023-11-21T06:15:33;79.00;;;23.17;;
19043;SDS011;9654;52.302;8.120;2023-11-21T06:18:00;76.30;;;21.40;;
19043;SDS011;9654;52.302;8.120;2023-11-21T06:20:26;63.03;;;20.67;;
19043;SDS011;9654;52.302;8.120;2023-11-21T06:22:53;67.93;;;19.77;;
19043;SDS011;9654;52.302;8.120;2023-11-21T06:25:21;62.37;;;20.27;;
19043;SDS011;9654;52.302;8.120;2023-11-21T06:27:48;58.00;;;18.57;;
19043;SDS011;9654;52.302;8.120;2023-11-21T06:30:16;48.93;;;16.13;;
19043;SDS011;9654;52.302;8.120;2023-11-21T06:32:45;48.07;;;16.60;;
19043;SDS011;9654;52.302;8.120;2023-11-21T06:35:12;42.53;;;16.33;;
19043;SDS011;9654;52.302;8.120;2023-11-21T06:37:40;39.03;;;14.73;;
19043;SDS011;9654;52.302;8.120;2023-11-21T06:40:12;41.20;;;15.40;;
19043;SDS011;9654;52.302;8.120;2023-11-21T06:42:41;33.60;;;14.10;;
19043;SDS011;9654;52.302;8.120;2023-11-21T06:45:09;32.47;;;12.67;;
19043;SDS011;9654;52.302;8.120;2023-11-21T06:47:36;37.07;;;13.83;;
19043;SDS011;9654;52.302;8.120;2023-11-21T06:50:05;31.50;;;12.33;;
19043;SDS011;9654;52.302;8.120;2023-11-21T06:52:32;31.40;;;12.97;;
19043;SDS011;9654;52.302;8.120;2023-11-21T06:54:59;35.10;;;13.53;;
19043;SDS011;9654;52.302;8.120;2023-11-21T06:57:26;39.80;;;14.90;;
19043;SDS011;9654;52.302;8.120;2023-11-21T06:59:54;32.13;;;13.07;;
19043;SDS011;9654;52.302;8.120;2023-11-21T07:02:22;36.97;;;13.23;;
19043;SDS011;9654;52.302;8.120;2023-11-21T07:04:49;35.20;;;12.97;;
19043;SDS011;9654;52.302;8.120;2023-11-21T07:07:16;34.73;;;13.60;;
19043;SDS011;9654;52.302;8.120;2023-11-21T07:09:44;30.67;;;13.20;;
19043;SDS011;9654;52.302;8.120;2023-11-21T07:12:11;31.80;;;13.07;;
19043;SDS011;9654;52.302;8.120;2023-11-21T07:14:37;32.93;;;13.13;;
19043;SDS011;9654;52.302;8.120;2023-11-21T07:17:09;32.53;;;13.67;;
19043;SDS011;9654;52.302;8.120;2023-11-21T07:19:37;35.60;;;14.30;;
19043;SDS011;9654;52.302;8.120;2023-11-21T07:22:04;35.83;;;14.87;;
19043;SDS011;9654;52.302;8.120;2023-11-21T07:24:31;30.77;;;13.60;;
19043;SDS011;9654;52.302;8.120;2023-11-21T07:26:58;35.83;;;14.27;;
19043;SDS011;9654;52.302;8.120;2023-11-21T07:29:25;40.07;;;15.10;;
19043;SDS011;9654;52.302;8.120;2023-11-21T07:31:54;39.40;;;14.20;;
19043;SDS011;9654;52.302;8.120;2023-11-21T07:34:22;42.37;;;15.40;;
19043;SDS011;9654;52.302;8.120;2023-11-21T07:36:49;35.20;;;13.57;;
19043;SDS011;9654;52.302;8.120;2023-11-21T07:39:16;32.10;;;13.60;;
19043;SDS011;9654;52.302;8.120;2023-11-21T07:41:42;37.50;;;14.17;;
19043;SDS011;9654;52.302;8.120;2023-11-21T07:44:13;35.60;;;14.13;;
19043;SDS011;9654;52.302;8.120;2023-11-21T07:46:41;31.23;;;13.67;;
19043;SDS011;9654;52.302;8.120;2023-11-21T07:49:08;32.70;;;13.27;;
19043;SDS011;9654;52.302;8.120;2023-11-21T07:51:36;33.80;;;13.87;;
19043;SDS011;9654;52.302;8.120;2023-11-21T07:54:03;34.73;;;13.03;;
19043;SDS011;9654;52.302;8.120;2023-11-21T07:56:30;36.80;;;13.90;;
19043;SDS011;9654;52.302;8.120;2023-11-21T07:58:57;28.13;;;12.37;;
19043;SDS011;9654;52.302;8.120;2023-11-21T08:01:24;33.97;;;13.23;;
19043;SDS011;9654;52.302;8.120;2023-11-21T08:03:53;39.10;;;14.50;;
19043;SDS011;9654;52.302;8.120;2023-11-21T08:06:22;31.40;;;13.63;;
19043;SDS011;9654;52.302;8.120;2023-11-21T08:08:50;31.47;;;13.20;;
19043;SDS011;9654;52.302;8.120;2023-11-21T08:11:17;32.77;;;13.87;;
19043;SDS011;9654;52.302;8.120;2023-11-21T08:13:44;35.47;;;13.80;;
19043;SDS011;9654;52.302;8.120;2023-11-21T08:16:12;39.57;;;16.27;;
19043;SDS011;9654;52.302;8.120;2023-11-21T08:18:38;40.70;;;16.50;;
19043;SDS011;9654;52.302;8.120;2023-11-21T08:21:06;42.37;;;16.33;;
19043;SDS011;9654;52.302;8.120;2023-11-21T08:23:33;44.77;;;17.27;;
19043;SDS011;9654;52.302;8.120;2023-11-21T08:26:01;42.73;;;16.47;;
19043;SDS011;9654;52.302;8.120;2023-11-21T08:28:28;47.30;;;18.03;;
19043;SDS011;9654;52.302;8.120;2023-11-21T08:30:55;43.87;;;17.40;;
19043;SDS011;9654;52.302;8.120;2023-11-21T08:33:22;42.07;;;17.87;;
19043;SDS011;9654;52.302;8.120;2023-11-21T08:35:49;53.10;;;18.23;;
19043;SDS011;9654;52.302;8.120;2023-11-21T08:38:15;54.20;;;19.10;;
19043;SDS011;9654;52.302;8.120;2023-11-21T08:40:42;49.50;;;19.20;;
19043;SDS011;9654;52.302;8.120;2023-11-21T08:43:11;46.30;;;18.40;;
19043;SDS011;9654;52.302;8.120;2023-11-21T08:45:39;53.90;;;19.20;;
19043;SDS011;9654;52.302;8.120;2023-11-21T08:48:06;55.83;;;16.53;;
19043;SDS011;9654;52.302;8.120;2023-11-21T08:50:33;55.37;;;16.37;;
19043;SDS011;9654;52.302;8.120;2023-11-21T08:53:00;58.73;;;15.87;;
19043;SDS011;9654;52.302;8.120;2023-11-21T08:55:27;47.50;;;15.60;;
19043;SDS011;9654;52.302;8.120;2023-11-21T08:57:53;47.23;;;15.67;;
19043;SDS011;9654;52.302;8.120;2023-11-21T09:00:21;63.63;;;15.43;;
19043;SDS011;9654;52.302;8.120;2023-11-21T09:02:48;33.17;;;13.93;;
19043;SDS011;9654;52.302;8.120;2023-11-21T09:05:15;28.73;;;10.30;;
19043;SDS011;9654;52.302;8.120;2023-11-21T09:07:42;20.97;;;9.90;;
19043;SDS011;9654;52.302;8.120;2023-11-21T09:10:11;21.37;;;9.77;;
19043;SDS011;9654;52.302;8.120;2023-11-21T09:12:39;19.23;;;9.93;;
19043;SDS011;9654;52.302;8.120;2023-11-21T09:15:08;20.77;;;10.27;;
19043;SDS011;9654;52.302;8.120;2023-11-21T09:17:38;17.83;;;9.63;;
19043;SDS011;9654;52.302;8.120;2023-11-21T09:20:05;20.33;;;9.43;;
19043;SDS011;9654;52.302;8.120;2023-11-21T09:22:35;18.73;;;9.57;;
19043;SDS011;9654;52.302;8.120;2023-11-21T09:25:01;25.33;;;10.10;;
19043;SDS011;9654;52.302;8.120;2023-11-21T09:27:30;24.17;;;10.47;;
19043;SDS011;9654;52.302;8.120;2023-11-21T09:29:57;35.77;;;11.87;;
19043;SDS011;9654;52.302;8.120;2023-11-21T09:32:24;42.33;;;11.83;;
19043;SDS011;9654;52.302;8.120;2023-11-21T09:34:52;31.90;;;11.93;;
19043;SDS011;9654;52.302;8.120;2023-11-21T09:37:20;31.60;;;12.17;;
19043;SDS011;9654;52.302;8.120;2023-11-21T09:39:47;30.37;;;12.10;;
19043;SDS011;9654;52.302;8.120;2023-11-21T09:42:15;27.40;;;11.77;;
19043;SDS011;9654;52.302;8.120;2023-11-21T09:44:51;22.57;;;11.13;;
19043;SDS011;9654;52.302;8.120;2023-11-21T09:47:26;28.53;;;10.57;;
19043;SDS011;9654;52.302;8.120;2023-11-21T09:49:55;27.90;;;11.20;;
19043;SDS011;9654;52.302;8.120;2023-11-21T09:52:27;21.10;;;9.90;;
19043;SDS011;9654;52.302;8.120;2023-11-21T09:54:55;20.10;;;9.63;;
19043;SDS011;9654;52.302;8.120;2023-11-21T09:57:23;25.00;;;10.00;;
19043;SDS011;9654;52.302;8.120;2023-11-21T09:59:51;18.10;;;9.00;;
19043;SDS011;9654;52.302;8.120;2023-11-21T10:02:21;21.03;;;9.70;;
19043;SDS011;9654;52.302;8.120;2023-11-21T10:04:51;16.30;;;8.57;;
19043;SDS011;9654;52.302;8.120;2023-11-21T10:07:19;17.60;;;8.93;;
19043;SDS011;9654;52.302;8.120;2023-11-21T10:09:47;17.43;;;8.70;;
19043;SDS011;9654;52.302;8.120;2023-11-21T10:12:14;16.37;;;9.00;;
19043;SDS011;9654;52.302;8.120;2023-11-21T10:14:41;16.13;;;8.83;;
19043;SDS011;9654;52.302;8.120;2023-11-21T10:17:10;16.80;;;9.60;;
19043;SDS011;9654;52.302;8.120;2023-11-21T10:19:38;17.90;;;9.50;;
19043;SDS011;9654;52.302;8.120;2023-11-21T10:22:05;14.03;;;8.33;;
19043;SDS011;9654;52.302;8.120;2023-11-21T10:24:35;13.87;;;8.07;;
19043;SDS011;9654;52.302;8.120;2023-11-21T10:27:03;13.03;;;8.13;;
19043;SDS011;9654;52.302;8.120;2023-11-21T10:29:30;12.37;;;8.00;;
19043;SDS011;9654;52.302;8.120;2023-11-21T10:32:01;17.77;;;10.60;;
19043;SDS011;9654;52.302;8.120;2023-11-21T10:34:28;15.93;;;9.77;;
19043;SDS011;9654;52.302;8.120;2023-11-21T10:36:55;16.77;;;10.33;;
19043;SDS011;9654;52.302;8.120;2023-11-21T10:39:23;16.33;;;10.23;;
19043;SDS011;9654;52.302;8.120;2023-11-21T10:41:54;16.37;;;10.40;;
19043;SDS011;9654;52.302;8.120;2023-11-21T10:44:21;19.47;;;10.27;;
19043;SDS011;9654;52.302;8.120;2023-11-21T10:46:49;21.60;;;11.87;;
19043;SDS011;9654;52.302;8.120;2023-11-21T10:49:17;17.23;;;10.70;;
19043;SDS011;9654;52.302;8.120;2023-11-21T10:51:45;21.10;;;11.00;;
19043;SDS011;9654;52.302;8.120;2023-11-21T10:54:16;17.33;;;10.80;;
19043;SDS011;9654;52.302;8.120;2023-11-21T10:56:43;23.07;;;11.53;;
19043;SDS011;9654;52.302;8.120;2023-11-21T10:59:13;15.93;;;9.37;;
19043;SDS011;9654;52.302;8.120;2023-11-21T11:01:41;17.90;;;10.07;;
19043;SDS011;9654;52.302;8.120;2023-11-21T11:04:11;18.07;;;9.67;;
19043;SDS011;9654;52.302;8.120;2023-11-21T11:06:41;17.90;;;10.50;;
19043;SDS011;9654;52.302;8.120;2023-11-21T11:09:09;20.93;;;12.27;;
19043;SDS011;9654;52.302;8.120;2023-11-21T11:11:38;18.80;;;12.27;;
19043;SDS011;9654;52.302;8.120;2023-11-21T11:14:06;18.47;;;10.80;;
19043;SDS011;9654;52.302;8.120;2023-11-21T11:16:36;18.37;;;11.60;;
19043;SDS011;9654;52.302;8.120;2023-11-21T11:19:06;18.10;;;11.13;;
19043;SDS011;9654;52.302;8.120;2023-11-21T11:21:35;20.40;;;11.90;;
19043;SDS011;9654;52.302;8.120;2023-11-21T11:24:18;19.37;;;12.07;;
19043;SDS011;9654;52.302;8.120;2023-11-21T11:27:06;17.57;;;11.30;;
19043;SDS011;9654;52.302;8.120;2023-11-21T11:29:42;17.97;;;11.20;;
19043;SDS011;9654;52.302;8.120;2023-11-21T11:32:21;20.33;;;11.77;;
19043;SDS011;9654;52.302;8.120;2023-11-21T11:34:55;22.90;;;11.27;;
19043;SDS011;9654;52.302;8.120;2023-11-21T11:37:27;23.97;;;13.73;;
19043;SDS011;9654;52.302;8.120;2023-11-21T11:39:55;24.00;;;13.63;;
19043;SDS011;9654;52.302;8.120;2023-11-21T11:42:23;27.07;;;13.30;;
19043;SDS011;9654;52.302;8.120;2023-11-21T11:44:50;26.23;;;14.23;;
19043;SDS011;9654;52.302;8.120;2023-11-21T11:47:19;20.40;;;12.87;;
19043;SDS011;9654;52.302;8.120;2023-11-21T11:50:05;22.83;;;12.77;;
19043;SDS011;9654;52.302;8.120;2023-11-21T11:52:39;22.23;;;12.57;;
19043;SDS011;9654;52.302;8.120;2023-11-21T11:55:06;22.67;;;12.77;;
19043;SDS011;9654;52.302;8.120;2023-11-21T11:57:35;26.13;;;12.73;;
19043;SDS011;9654;52.302;8.120;2023-11-21T12:00:13;21.30;;;12.37;;
19043;SDS011;9654;52.302;8.120;2023-11-21T12:02:45;19.33;;;11.97;;
19043;SDS011;9654;52.302;8.120;2023-11-21T12:05:13;18.17;;;10.87;;
19043;SDS011;9654;52.302;8.120;2023-11-21T12:07:45;21.43;;;11.27;;
19043;SDS011;9654;52.302;8.120;2023-11-21T12:10:13;17.60;;;11.13;;
19043;SDS011;9654;52.302;8.120;2023-11-21T12:12:43;18.37;;;10.43;;
19043;SDS011;9654;52.302;8.120;2023-11-21T12:15:11;15.70;;;9.50;;
19043;SDS011;9654;52.302;8.120;2023-11-21T12:17:38;13.93;;;9.33;;
19043;SDS011;9654;52.302;8.120;2023-11-21T12:20:08;19.83;;;11.07;;
19043;SDS011;9654;52.302;8.120;2023-11-21T12:22:40;12.93;;;9.47;;
19043;SDS011;9654;52.302;8.120;2023-11-21T12:25:08;12.53;;;8.87;;
19043;SDS011;9654;52.302;8.120;2023-11-21T12:27:40;12.90;;;8.07;;
19043;SDS011;9654;52.302;8.120;2023-11-21T12:30:07;12.50;;;8.27;;
19043;SDS011;9654;52.302;8.120;2023-11-21T12:32:38;14.20;;;8.87;;
19043;SDS011;9654;52.302;8.120;2023-11-21T12:35:05;14.40;;;8.40;;
19043;SDS011;9654;52.302;8.120;2023-11-21T12:37:34;14.50;;;8.77;;
19043;SDS011;9654;52.302;8.120;2023-11-21T12:40:02;21.43;;;9.93;;
19043;SDS011;9654;52.302;8.120;2023-11-21T12:42:29;16.30;;;8.47;;
19043;SDS011;9654;52.302;8.120;2023-11-21T12:45:09;13.20;;;7.50;;
19043;SDS011;9654;52.302;8.120;2023-11-21T12:47:45;10.07;;;6.90;;
19043;SDS011;9654;52.302;8.120;2023-11-21T12:50:14;11.50;;;7.10;;
19043;SDS011;9654;52.302;8.120;2023-11-21T12:52:44;10.77;;;7.53;;
19043;SDS011;9654;52.302;8.120;2023-11-21T12:55:13;11.20;;;7.73;;
19043;SDS011;9654;52.302;8.120;2023-11-21T12:57:42;12.10;;;7.63;;
19043;SDS011;9654;52.302;8.120;2023-11-21T13:00:10;12.17;;;8.03;;
19043;SDS011;9654;52.302;8.120;2023-11-21T13:02:50;26.23;;;13.83;;
19043;SDS011;9654;52.302;8.120;2023-11-21T13:05:24;11.47;;;7.10;;
19043;SDS011;9654;52.302;8.120;2023-11-21T13:07:55;11.33;;;6.30;;
19043;SDS011;9654;52.302;8.120;2023-11-21T13:10:25;11.23;;;6.07;;
19043;SDS011;9654;52.302;8.120;2023-11-21T13:12:56;8.53;;;6.27;;
19043;SDS011;9654;52.302;8.120;2023-11-21T13:15:24;8.67;;;6.30;;
19043;SDS011;9654;52.302;8.120;2023-11-21T13:17:52;10.23;;;6.40;;
19043;SDS011;9654;52.302;8.120;2023-11-21T13:20:21;12.07;;;6.80;;
19043;SDS011;9654;52.302;8.120;2023-11-21T13:22:49;10.80;;;6.70;;
19043;SDS011;9654;52.302;8.120;2023-11-21T13:25:19;12.67;;;7.13;;
19043;SDS011;9654;52.302;8.120;2023-11-21T13:27:47;8.17;;;5.67;;
19043;SDS011;9654;52.302;8.120;2023-11-21T13:30:14;10.10;;;6.20;;
19043;SDS011;9654;52.302;8.120;2023-11-21T13:32:41;7.87;;;5.90;;
19043;SDS011;9654;52.302;8.120;2023-11-21T13:35:09;12.57;;;9.23;;
19043;SDS011;9654;52.302;8.120;2023-11-21T13:37:45;12.47;;;8.63;;
19043;SDS011;9654;52.302;8.120;2023-11-21T13:40:15;12.13;;;8.53;;
19043;SDS011;9654;52.302;8.120;2023-11-21T13:42:47;11.80;;;7.20;;
19043;SDS011;9654;52.302;8.120;2023-11-21T13:45:18;10.93;;;6.93;;
19043;SDS011;9654;52.302;8.120;2023-11-21T13:47:46;10.83;;;6.67;;
19043;SDS011;9654;52.302;8.120;2023-11-21T13:50:16;10.37;;;7.03;;
19043;SDS011;9654;52.302;8.120;2023-11-21T13:52:47;11.27;;;6.60;;
19043;SDS011;9654;52.302;8.120;2023-11-21T13:55:16;10.47;;;7.10;;
19043;SDS011;9654;52.302;8.120;2023-11-21T13:57:43;13.30;;;6.97;;
19043;SDS011;9654;52.302;8.120;2023-11-21T14:00:14;17.17;;;9.83;;
19043;SDS011;9654;52.302;8.120;2023-11-21T14:03:07;17.53;;;8.23;;
19043;SDS011;9654;52.302;8.120;2023-11-21T14:05:42;12.10;;;8.33;;
19043;SDS011;9654;52.302;8.120;2023-11-21T14:08:09;10.13;;;6.57;;
19043;SDS011;9654;52.302;8.120;2023-11-21T14:10:43;12.80;;;7.43;;
19043;SDS011;9654;52.302;8.120;2023-11-21T14:13:14;9.93;;;6.97;;
19043;SDS011;9654;52.302;8.120;2023-11-21T14:15:41;14.07;;;7.33;;
19043;SDS011;9654;52.302;8.120;2023-11-21T14:18:11;10.23;;;6.83;;
19043;SDS011;9654;52.302;8.120;2023-11-21T14:20:41;12.07;;;7.30;;
19043;SDS011;9654;52.302;8.120;2023-11-21T14:23:09;10.63;;;6.93;;
19043;SDS011;9654;52.302;8.120;2023-11-21T14:25:36;12.30;;;6.67;;
19043;SDS011;9654;52.302;8.120;2023-11-21T14:28:05;11.57;;;7.53;;
19043;SDS011;9654;52.302;8.120;2023-11-21T14:30:32;15.07;;;7.77;;
19043;SDS011;9654;52.302;8.120;2023-11-21T14:33:01;13.60;;;7.87;;
19043;SDS011;9654;52.302;8.120;2023-11-21T14:35:28;12.03;;;7.73;;
19043;SDS011;9654;52.302;8.120;2023-11-21T14:37:57;11.83;;;6.70;;
19043;SDS011;9654;52.302;8.120;2023-11-21T14:40:25;14.77;;;8.23;;